createdAt,value
2022-09-03T00:02:13.354Z,13.65
2022-09-03T00:05:23.504Z,13.64
2022-09-03T00:08:28.345Z,13.59
2022-09-03T00:11:19.418Z,13.63
2022-09-03T00:14:12.934Z,13.64
2022-09-03T00:17:07.645Z,13.62
2022-09-03T00:20:20.358Z,13.54
2022-09-03T00:23:12.242Z,13.51
2022-09-03T00:26:17.715Z,13.53
2022-09-03T00:29:16.266Z,13.50
2022-09-03T00:32:11.107Z,13.43
2022-09-03T00:35:03.406Z,13.46
2022-09-03T00:37:52.984Z,13.44
2022-09-03T00:41:08.783Z,13.48
2022-09-03T00:44:36.151Z,13.40
2022-09-03T00:47:24.901Z,13.34
2022-09-03T00:50:40.191Z,13.27
2022-09-03T00:53:39.219Z,13.16
2022-09-03T00:56:41.404Z,13.15
2022-09-03T01:00:03.779Z,13.08
2022-09-03T01:03:23.106Z,13.05
2022-09-03T01:06:28.066Z,12.93
2022-09-03T01:10:01.306Z,12.96
2022-09-03T01:13:13.440Z,12.95
2022-09-03T01:16:16.150Z,12.90
2022-09-03T01:19:28.958Z,12.97
2022-09-03T01:22:44.205Z,13.22
2022-09-03T01:25:51.676Z,13.26
2022-09-03T01:29:00.928Z,13.15
2022-09-03T01:31:47.869Z,13.41
2022-09-03T01:34:48.409Z,13.42
2022-09-03T01:37:38.327Z,13.42
2022-09-03T01:40:51.723Z,13.48
2022-09-03T01:43:51.856Z,13.50
2022-09-03T01:46:46.000Z,13.31
2022-09-03T01:49:45.407Z,13.32
2022-09-03T01:53:06.321Z,13.32
2022-09-03T01:56:43.020Z,13.16
2022-09-03T01:59:59.866Z,13.20
2022-09-03T02:02:51.209Z,13.27
2022-09-03T02:05:39.263Z,13.44
2022-09-03T02:08:26.246Z,13.34
2022-09-03T02:11:13.455Z,13.40
2022-09-03T02:14:00.940Z,13.42
2022-09-03T02:16:47.907Z,13.32
2022-09-03T02:19:37.730Z,13.30
2022-09-03T02:22:24.948Z,13.33
2022-09-03T02:25:12.134Z,13.29
2022-09-03T02:28:00.381Z,13.29
2022-09-03T02:30:48.414Z,13.27
2022-09-03T02:33:39.237Z,13.29
2022-09-03T02:36:31.884Z,13.44
2022-09-03T02:39:18.908Z,13.45
2022-09-03T02:42:06.413Z,13.42
2022-09-03T02:45:08.297Z,13.42
2022-09-03T02:47:58.957Z,13.47
2022-09-03T02:50:45.952Z,13.42
2022-09-03T02:53:32.932Z,13.44
2022-09-03T02:56:19.986Z,13.32
2022-09-03T02:59:09.261Z,13.25
2022-09-03T03:01:56.250Z,13.23
2022-09-03T03:04:48.073Z,13.18
2022-09-03T03:07:39.297Z,13.10
2022-09-03T03:10:26.269Z,13.03
2022-09-03T03:13:14.320Z,13.02
2022-09-03T03:16:04.172Z,13.06
2022-09-03T03:18:52.839Z,13.14
2022-09-03T03:21:40.341Z,12.99
2022-09-03T03:24:27.357Z,13.05
2022-09-03T03:27:15.012Z,13.10
2022-09-03T03:30:02.006Z,13.19
2022-09-03T03:32:49.057Z,13.08
2022-09-03T03:35:36.764Z,13.05
2022-09-03T03:38:23.831Z,12.91
2022-09-03T03:41:13.375Z,12.99
2022-09-03T03:44:05.461Z,12.91
2022-09-03T03:46:52.452Z,12.93
2022-09-03T03:49:39.435Z,12.86
2022-09-03T03:52:28.259Z,12.86
2022-09-03T03:55:15.928Z,12.89
2022-09-03T03:58:03.129Z,12.82
2022-09-03T04:00:53.274Z,12.89
2022-09-03T04:03:40.957Z,12.76
2022-09-03T04:06:28.801Z,12.57
2022-09-03T04:09:15.837Z,12.67
2022-09-03T04:12:03.919Z,12.48
2022-09-03T04:14:50.870Z,12.51
2022-09-03T04:17:37.853Z,12.43
2022-09-03T04:20:24.898Z,12.34
2022-09-03T04:23:12.786Z,12.55
2022-09-03T04:25:59.967Z,12.35
2022-09-03T04:28:47.030Z,12.36
2022-09-03T04:31:36.438Z,12.41
2022-09-03T04:34:24.394Z,12.43
2022-09-03T04:37:12.104Z,12.42
2022-09-03T04:39:59.270Z,12.45
2022-09-03T04:42:46.344Z,12.54
2022-09-03T04:45:33.406Z,12.47
2022-09-03T04:48:20.350Z,12.44
2022-09-03T04:51:16.106Z,12.47
2022-09-03T04:54:03.165Z,12.43
2022-09-03T04:56:50.109Z,12.48
2022-09-03T04:59:37.222Z,12.47
2022-09-03T05:02:24.295Z,12.43
2022-09-03T05:05:11.269Z,12.53
2022-09-03T05:07:59.101Z,12.52
2022-09-03T05:10:46.049Z,12.52
2022-09-03T05:13:34.710Z,12.55
2022-09-03T05:16:23.787Z,12.68
2022-09-03T05:19:10.950Z,12.78
2022-09-03T05:21:57.958Z,12.77
2022-09-03T05:24:44.930Z,12.78
2022-09-03T05:27:32.323Z,12.85
2022-09-03T05:30:19.350Z,12.85
2022-09-03T05:33:06.299Z,12.89
2022-09-03T05:36:01.789Z,13.01
2022-09-03T05:38:49.209Z,13.03
2022-09-03T05:41:36.266Z,13.11
2022-09-03T05:44:24.043Z,13.03
2022-09-03T05:47:11.574Z,13.06
2022-09-03T05:49:58.827Z,13.22
2022-09-03T05:52:45.805Z,13.28
2022-09-03T05:55:33.255Z,13.43
2022-09-03T05:58:20.266Z,13.53
2022-09-03T06:01:17.917Z,13.64
2022-09-03T06:04:13.053Z,13.74
2022-09-03T06:07:00.021Z,13.76
2022-09-03T06:09:47.015Z,13.73
2022-09-03T06:12:33.985Z,13.89
2022-09-03T06:15:20.965Z,14.01
2022-09-03T06:18:07.961Z,14.06
2022-09-03T06:20:59.494Z,14.12
2022-09-03T06:23:56.665Z,14.32
2022-09-03T06:26:47.002Z,14.40
2022-09-03T06:29:35.640Z,14.47
2022-09-03T06:32:22.746Z,14.67
2022-09-03T06:35:10.037Z,14.86
2022-09-03T06:37:56.970Z,14.96
2022-09-03T06:40:47.406Z,15.03
2022-09-03T06:43:36.429Z,15.15
2022-09-03T06:46:24.118Z,15.32
2022-09-03T06:49:12.046Z,15.48
2022-09-03T06:51:59.036Z,15.54
2022-09-03T06:54:46.022Z,15.68
2022-09-03T06:57:33.089Z,15.66
2022-09-03T07:00:21.356Z,15.80
2022-09-03T07:03:08.273Z,15.99
2022-09-03T07:06:00.835Z,16.00
2022-09-03T07:08:47.802Z,16.23
2022-09-03T07:11:36.108Z,16.20
2022-09-03T07:14:23.393Z,16.28
2022-09-03T07:17:10.734Z,16.29
2022-09-03T07:19:58.332Z,16.35
2022-09-03T07:22:45.608Z,16.58
2022-09-03T07:25:33.001Z,16.82
2022-09-03T07:28:20.125Z,16.62
2022-09-03T07:31:08.763Z,16.69
2022-09-03T07:34:00.881Z,17.02
2022-09-03T07:36:51.150Z,17.14
2022-09-03T07:39:38.567Z,17.36
2022-09-03T07:42:27.927Z,17.41
2022-09-03T07:45:15.138Z,17.58
2022-09-03T07:48:02.339Z,17.51
2022-09-03T07:50:49.386Z,17.32
2022-09-03T07:53:36.841Z,17.57
2022-09-03T07:56:24.815Z,17.83
2022-09-03T07:59:12.168Z,18.07
2022-09-03T08:01:59.210Z,18.01
2022-09-03T08:04:46.301Z,18.11
2022-09-03T08:07:33.252Z,18.16
2022-09-03T08:10:21.594Z,18.37
2022-09-03T08:13:08.635Z,18.58
2022-09-03T08:15:57.202Z,18.61
2022-09-03T08:18:44.448Z,18.66
2022-09-03T08:21:32.078Z,18.98
2022-09-03T08:24:21.955Z,19.02
2022-09-03T08:27:09.418Z,19.05
2022-09-03T08:29:56.540Z,19.05
2022-09-03T08:32:43.962Z,19.14
2022-09-03T08:35:34.434Z,19.49
2022-09-03T08:38:21.626Z,19.63
2022-09-03T08:41:16.949Z,19.96
2022-09-03T08:44:17.620Z,20.09
2022-09-03T08:47:13.892Z,20.06
2022-09-03T08:50:12.751Z,20.43
2022-09-03T08:53:21.329Z,20.19
2022-09-03T08:56:13.385Z,20.10
2022-09-03T08:59:01.929Z,20.60
2022-09-03T09:01:59.380Z,20.91
2022-09-03T09:04:49.230Z,21.27
2022-09-03T09:07:45.051Z,21.34
2022-09-03T09:10:44.500Z,21.33
2022-09-03T09:13:39.030Z,21.67
2022-09-03T09:17:14.172Z,21.76
2022-09-03T09:20:08.201Z,21.62
2022-09-03T09:23:03.754Z,21.54
2022-09-03T09:25:51.628Z,21.31
2022-09-03T09:28:39.753Z,21.80
2022-09-03T09:31:28.583Z,21.73
2022-09-03T09:34:15.595Z,21.88
2022-09-03T09:37:06.207Z,21.81
2022-09-03T09:40:00.997Z,21.96
2022-09-03T09:42:48.074Z,22.30
2022-09-03T09:45:35.350Z,22.67
2022-09-03T09:48:26.510Z,22.92
2022-09-03T09:51:19.594Z,22.61
2022-09-03T09:54:27.978Z,23.01
2022-09-03T09:57:20.253Z,23.20
2022-09-03T10:00:13.486Z,23.03
2022-09-03T10:03:02.143Z,22.98
2022-09-03T10:06:28.058Z,23.17
2022-09-03T10:09:20.513Z,23.45
2022-09-03T10:12:26.448Z,23.31
2022-09-03T10:15:51.722Z,23.29
2022-09-03T10:19:09.639Z,24.05
2022-09-03T10:22:26.414Z,23.96
2022-09-03T10:25:26.511Z,23.80
2022-09-03T10:28:17.059Z,24.10
2022-09-03T10:31:33.637Z,24.04
2022-09-03T10:34:53.345Z,24.21
2022-09-03T10:37:53.473Z,23.87
2022-09-03T10:40:57.977Z,23.92
2022-09-03T10:44:41.095Z,24.04
2022-09-03T10:48:14.781Z,24.20
2022-09-03T10:51:22.955Z,24.13
2022-09-03T10:54:38.671Z,24.10
2022-09-03T10:57:51.899Z,24.29
2022-09-03T11:00:54.385Z,24.47
2022-09-03T11:04:04.770Z,24.49
2022-09-03T11:06:53.550Z,24.79
2022-09-03T11:10:11.459Z,25.04
2022-09-03T11:13:24.000Z,25.12
2022-09-03T11:16:26.094Z,25.53
2022-09-03T11:19:20.676Z,25.15
2022-09-03T11:22:11.096Z,24.65
2022-09-03T11:25:02.923Z,24.34
2022-09-03T11:28:08.291Z,24.92
2022-09-03T11:31:36.823Z,25.13
2022-09-03T11:34:31.878Z,24.83
2022-09-03T11:37:30.663Z,24.83
2022-09-03T11:40:19.546Z,25.21
2022-09-03T11:43:29.732Z,25.37
2022-09-03T11:46:23.535Z,25.48
2022-09-03T11:49:15.369Z,25.53
2022-09-03T11:52:11.105Z,25.75
2022-09-03T11:54:58.916Z,25.97
2022-09-03T11:57:46.687Z,25.83
2022-09-03T12:00:38.680Z,25.43
2022-09-03T12:03:30.909Z,25.48
2022-09-03T12:06:52.364Z,25.03
2022-09-03T12:09:48.112Z,25.48
2022-09-03T12:12:59.916Z,25.99
2022-09-03T12:15:47.302Z,25.99
2022-09-03T12:18:37.023Z,25.83
2022-09-03T12:21:25.953Z,25.96
2022-09-03T12:24:19.538Z,26.04
2022-09-03T12:27:10.749Z,26.30
2022-09-03T12:30:00.438Z,26.11
2022-09-03T12:32:48.503Z,25.79
2022-09-03T12:39:10.006Z,26.08
2022-09-03T12:41:57.344Z,26.33
2022-09-03T12:44:45.414Z,26.28
2022-09-03T12:47:42.972Z,25.76
2022-09-03T12:50:30.855Z,25.99
2022-09-03T12:53:25.116Z,26.01
2022-09-03T12:56:16.768Z,25.28
2022-09-03T12:59:12.129Z,24.97
2022-09-03T13:02:12.806Z,25.62
2022-09-03T13:05:01.478Z,25.51
2022-09-03T13:07:55.626Z,25.58
2022-09-03T13:10:44.168Z,24.88
2022-09-03T13:13:34.125Z,25.00
2022-09-03T13:16:50.345Z,24.77
2022-09-03T13:20:03.233Z,24.55
2022-09-03T13:23:18.749Z,24.88
2022-09-03T13:26:12.998Z,24.53
2022-09-03T13:29:24.778Z,24.95
2022-09-03T13:32:19.697Z,25.37
2022-09-03T13:35:47.293Z,25.40
2022-09-03T13:38:51.733Z,25.39
2022-09-03T13:41:49.563Z,25.03
2022-09-03T13:44:59.175Z,25.31
2022-09-03T13:48:29.913Z,25.18
2022-09-03T13:51:20.780Z,25.11
2022-09-03T13:54:47.796Z,25.37
2022-09-03T13:57:39.921Z,25.42
2022-09-03T14:00:38.622Z,25.41
2022-09-03T14:03:49.023Z,25.40
2022-09-03T14:06:45.224Z,25.36
2022-09-03T14:09:50.816Z,25.06
2022-09-03T14:13:06.523Z,25.12
2022-09-03T14:16:40.675Z,25.29
2022-09-03T14:19:53.987Z,25.39
2022-09-03T14:22:52.106Z,25.12
2022-09-03T14:25:42.785Z,25.07
2022-09-03T14:28:49.867Z,25.00
2022-09-03T14:31:59.487Z,24.88
2022-09-03T14:35:00.463Z,25.06
2022-09-03T14:38:06.130Z,25.14
2022-09-03T14:41:14.417Z,24.67
2022-09-03T14:44:38.951Z,24.73
2022-09-03T14:47:44.878Z,24.33
2022-09-03T14:50:55.286Z,24.41
2022-09-03T14:53:55.763Z,24.51
2022-09-03T14:57:13.279Z,24.27
2022-09-03T15:00:20.118Z,24.41
2022-09-03T15:03:22.595Z,24.41
2022-09-03T15:06:28.131Z,24.39
2022-09-03T15:09:50.742Z,24.18
2022-09-03T15:12:42.690Z,24.13
2022-09-03T15:15:48.553Z,24.14
2022-09-03T15:18:53.824Z,24.05
2022-09-03T15:21:52.828Z,24.15
2022-09-03T15:24:42.908Z,24.50
2022-09-03T15:27:42.062Z,24.66
2022-09-03T15:30:50.554Z,24.74
2022-09-03T15:33:45.357Z,24.82
2022-09-03T15:36:40.414Z,24.72
2022-09-03T15:39:39.230Z,24.57
2022-09-03T15:42:28.691Z,24.82
2022-09-03T15:45:31.544Z,25.06
2022-09-03T15:48:27.958Z,25.12
2022-09-03T15:51:25.520Z,25.02
2022-09-03T15:57:10.111Z,24.49
2022-09-03T16:00:07.689Z,24.38
2022-09-03T16:03:23.893Z,24.52
2022-09-03T16:06:39.904Z,24.16
2022-09-03T16:10:07.675Z,23.97
2022-09-03T16:13:06.648Z,23.70
2022-09-03T16:16:11.312Z,23.81
2022-09-03T16:19:05.590Z,24.02
2022-09-03T16:22:02.318Z,24.01
2022-09-03T16:24:59.135Z,24.00
2022-09-03T16:28:10.252Z,24.03
2022-09-03T16:31:00.310Z,23.82
2022-09-03T16:34:18.676Z,23.72
2022-09-03T16:37:29.221Z,23.77
2022-09-03T16:40:52.048Z,23.51
2022-09-03T16:43:59.846Z,23.46
2022-09-03T16:47:07.622Z,23.42
2022-09-03T16:50:29.546Z,23.17
2022-09-03T16:53:34.127Z,23.16
2022-09-03T16:56:55.117Z,23.11
2022-09-03T17:00:29.666Z,23.00
2022-09-03T17:04:00.518Z,22.88
2022-09-03T17:07:12.722Z,22.86
2022-09-03T17:14:09.105Z,22.75
2022-09-03T17:17:05.934Z,22.40
2022-09-03T17:20:20.961Z,22.34
2022-09-03T17:23:09.842Z,22.28
2022-09-03T17:26:15.483Z,22.19
2022-09-03T17:29:08.849Z,22.08
2022-09-03T17:32:33.112Z,21.82
2022-09-03T17:35:38.839Z,21.68
2022-09-03T17:39:05.586Z,21.69
2022-09-03T17:41:59.908Z,21.50
2022-09-03T17:45:08.945Z,21.48
2022-09-03T17:48:05.617Z,21.32
2022-09-03T17:51:04.942Z,21.33
2022-09-03T17:54:06.368Z,21.20
2022-09-03T17:57:10.765Z,21.05
2022-09-03T18:00:46.555Z,21.01
2022-09-03T18:03:56.331Z,20.87
2022-09-03T18:06:59.278Z,20.74
2022-09-03T18:10:02.538Z,20.65
2022-09-03T18:13:13.658Z,20.56
2022-09-03T18:16:13.686Z,20.38
2022-09-03T18:19:07.019Z,20.41
2022-09-03T18:22:13.628Z,20.29
2022-09-03T18:29:19.053Z,20.02
2022-09-03T18:32:30.362Z,19.87
2022-09-03T18:39:09.294Z,19.70
2022-09-03T18:42:23.845Z,19.37
2022-09-03T18:46:34.199Z,19.38
2022-09-03T18:49:44.608Z,19.28
2022-09-03T18:53:15.757Z,19.13
2022-09-03T18:57:00.109Z,19.03
2022-09-03T19:00:28.780Z,18.87
2022-09-03T19:07:48.757Z,19.12
2022-09-03T19:11:05.374Z,19.00
2022-09-03T19:14:11.487Z,19.11
2022-09-03T19:17:52.130Z,19.25
2022-09-03T19:21:21.514Z,19.10
2022-09-03T19:24:27.233Z,19.00
2022-09-03T19:28:21.825Z,19.18
2022-09-03T19:31:46.027Z,19.11
2022-09-03T19:35:08.943Z,19.02
2022-09-03T19:38:38.651Z,19.00
2022-09-03T19:46:00.707Z,18.97
2022-09-03T19:49:25.476Z,19.01
2022-09-03T19:52:53.472Z,18.93
2022-09-03T19:56:09.087Z,18.90
2022-09-03T19:59:19.345Z,18.89
2022-09-03T20:02:25.211Z,18.88
2022-09-03T20:05:38.328Z,18.84
2022-09-03T20:08:44.499Z,18.67
2022-09-03T20:11:31.777Z,18.68
2022-09-03T20:14:19.859Z,18.68
2022-09-03T20:17:41.901Z,18.50
2022-09-03T20:20:42.021Z,18.42
2022-09-03T20:23:48.273Z,18.36
2022-09-03T20:27:05.391Z,18.16
2022-09-03T20:30:13.428Z,18.00
2022-09-03T20:33:12.829Z,17.90
2022-09-03T20:36:24.399Z,17.80
2022-09-03T20:39:27.744Z,17.69
2022-09-03T20:42:26.469Z,17.63
2022-09-03T20:45:18.459Z,17.52
2022-09-03T20:48:22.185Z,17.34
2022-09-03T20:51:22.347Z,17.21
2022-09-03T20:54:21.369Z,17.15
2022-09-03T20:57:14.692Z,17.09
2022-09-03T21:00:24.205Z,17.02
2022-09-03T21:03:18.383Z,16.92
2022-09-03T21:06:42.141Z,17.09
2022-09-03T21:09:38.370Z,17.02
2022-09-03T21:12:36.267Z,17.19
2022-09-03T21:15:51.176Z,17.06
2022-09-03T21:19:11.707Z,17.07
2022-09-03T21:22:47.393Z,16.87
2022-09-03T21:25:41.436Z,16.90
2022-09-03T21:29:00.493Z,16.77
2022-09-03T21:32:17.370Z,16.73
2022-09-03T21:39:12.156Z,16.68
2022-09-03T21:42:37.902Z,16.59
2022-09-03T21:45:53.968Z,16.41
2022-09-03T21:48:47.393Z,16.36
2022-09-03T21:51:53.325Z,16.50
2022-09-03T21:54:40.664Z,16.55
2022-09-03T21:58:04.605Z,16.54
2022-09-03T22:00:57.791Z,16.43
2022-09-03T22:03:44.828Z,16.23
2022-09-03T22:06:46.005Z,16.37
2022-09-03T22:09:41.985Z,16.30
2022-09-03T22:12:37.481Z,16.24
2022-09-03T22:15:24.929Z,16.27
2022-09-03T22:18:23.863Z,16.28
2022-09-03T22:21:19.798Z,16.09
2022-09-03T22:24:23.191Z,16.11
2022-09-03T22:27:44.958Z,15.92
2022-09-03T22:31:04.915Z,15.98
2022-09-03T22:34:03.723Z,15.93
2022-09-03T22:36:58.835Z,15.92
2022-09-03T22:39:47.255Z,15.86
2022-09-03T22:43:04.885Z,15.88
2022-09-03T22:46:04.088Z,15.73
2022-09-03T22:49:01.701Z,15.72
2022-09-03T22:52:06.374Z,15.82
2022-09-03T22:55:05.634Z,15.65
2022-09-03T22:57:56.293Z,15.52
2022-09-03T23:00:53.495Z,15.56
2022-09-03T23:03:48.420Z,15.35
2022-09-03T23:06:41.843Z,15.28
2022-09-03T23:09:33.741Z,15.27
2022-09-03T23:12:33.725Z,15.25
2022-09-03T23:15:29.605Z,15.28
2022-09-03T23:18:27.108Z,15.21
2022-09-03T23:21:25.279Z,15.25
2022-09-03T23:24:20.740Z,15.14
2022-09-03T23:27:15.037Z,15.11
2022-09-03T23:30:02.784Z,15.01
2022-09-03T23:32:55.246Z,15.01
2022-09-03T23:36:05.066Z,14.95
2022-09-03T23:39:15.000Z,14.83
2022-09-03T23:42:17.281Z,14.86
2022-09-03T23:45:23.718Z,14.90
2022-09-03T23:48:34.050Z,14.80
2022-09-03T23:51:33.590Z,14.80
2022-09-03T23:54:46.691Z,14.91
2022-09-03T23:57:36.649Z,14.80
